Time;durP1;ratioP1;P1;durP2;ratioP2;P2;SDS_P1;SDS_P2;PMS_P1;PMS_P2;Temp;Humidity;BMP_temperature;BMP_pressure;BME280_temperature;BME280_humidity;BME280_pressure;Samples;Min_cycle;Max_cycle;Signal;HPM_P1;HPM_P2
2023/10/07 00:00:48;;;;;;;;;;;;;;;10.75;79.00;96094.91;5113580;28;973;-56
2023/10/07 00:03:21;;;;;;;;;;;;;;;10.88;78.31;96095.47;5113786;28;1059;-56
2023/10/07 00:05:47;;;;;;;;;;;;;;;10.85;78.20;96098.47;5113764;28;1902;-56
2023/10/07 00:08:16;;;;;;;;;;;;;;;10.85;78.32;96089.56;5113736;28;969;-56
2023/10/07 00:10:44;;;;;;;;;;;;;;;10.92;77.52;96098.72;5113472;28;921;-56
2023/10/07 00:13:11;;;;;;;;;;;;;;;10.58;78.91;96088.41;5095408;28;1032;-56
2023/10/07 00:15:37;;;;;;;;;;;;;;;10.60;78.90;96091.78;5113426;28;1031;-56
2023/10/07 00:18:13;;;;;;;;;;;;;;;10.46;79.57;96089.53;5113645;28;999;-56
2023/10/07 00:20:47;;;;;;;;;;;;;;;10.27;80.35;96091.13;5113609;28;956;-56
2023/10/07 00:23:20;;;;;;;;;;;;;;;10.37;80.08;96085.84;5113653;28;1119;-56
2023/10/07 00:25:50;;;;;;;;;;;;;;;10.27;80.68;96085.78;5113315;28;1911;-56
2023/10/07 00:28:32;;;;;;;;;;;;;;;10.34;80.27;96084.28;5113125;28;1211;-56
2023/10/07 00:31:02;;;;;;;;;;;;;;;10.23;80.96;96084.38;5113711;28;1023;-57
2023/10/07 00:33:30;;;;;;;;;;;;;;;10.33;80.76;96090.59;5117002;28;1119;-58
2023/10/07 00:36:02;;;;;;;;;;;;;;;10.54;79.57;96089.69;5116995;28;1024;-58
2023/10/07 00:38:37;;;;;;;;;;;;;;;10.60;78.98;96091.78;5117130;28;1057;-58
2023/10/07 00:41:04;;;;;;;;;;;;;;;10.53;79.54;96099.53;5117132;28;1052;-58
2023/10/07 00:43:33;;;;;;;;;;;;;;;10.59;79.20;96092.78;5116873;28;1910;-59
2023/10/07 00:46:20;;;;;;;;;;;;;;;10.58;78.91;96091.09;5117051;28;999;-58
2023/10/07 00:48:53;;;;;;;;;;;;;;;10.49;79.00;96092.78;5116840;28;998;-58
2023/10/07 00:51:34;;;;;;;;;;;;;;;10.32;79.41;96088.94;5116656;28;1123;-58
2023/10/07 00:54:18;;;;;;;;;;;;;;;10.50;78.68;96081.09;5116645;28;1143;-58
2023/10/07 00:56:50;;;;;;;;;;;;;;;10.09;80.06;96082.94;5116896;28;1064;-58
2023/10/07 00:59:17;;;;;;;;;;;;;;;9.92;80.62;96073.72;5106870;28;1209;-58
2023/10/07 01:01:47;;;;;;;;;;;;;;;10.11;79.93;96074.75;5096348;28;989;-58
2023/10/07 01:04:15;;;;;;;;;;;;;;;9.95;80.82;96072.59;5096072;28;1998;-58
2023/10/07 01:06:45;;;;;;;;;;;;;;;10.08;80.65;96075.03;5096109;28;1030;-58
2023/10/07 01:09:14;;;;;;;;;;;;;;;9.94;81.33;96074.44;5078255;28;1048;-58
2023/10/07 01:11:46;;;;;;;;;;;;;;;10.24;80.75;96083.38;5095891;28;1032;-58
2023/10/07 01:14:12;;;;;;;;;;;;;;;10.21;80.58;96069.47;5095723;28;766;-58
2023/10/07 01:16:42;;;;;;;;;;;;;;;10.13;80.61;96067.44;5095757;28;1029;-58
2023/10/07 01:21:50;;;;;;;;;;;;;;;10.20;80.18;96073.94;5096097;28;1041;-58
2023/10/07 01:24:23;;;;;;;;;;;;;;;10.30;80.16;96079.31;5095719;28;1976;-58
2023/10/07 01:26:51;;;;;;;;;;;;;;;10.27;80.01;96077.75;5102748;28;1253;-58
2023/10/07 01:29:16;;;;;;;;;;;;;;;10.23;79.73;96081.69;5116088;28;1068;-58
2023/10/07 01:32:11;;;;;;;;;;;;;;;10.03;79.48;96079.94;5115883;28;1074;-58
2023/10/07 01:34:38;;;;;;;;;;;;;;;9.89;79.81;96076.66;5097815;28;1016;-58
2023/10/07 01:37:05;;;;;;;;;;;;;;;9.84;80.31;96073.53;5116009;28;1032;-58
2023/10/07 01:39:40;;;;;;;;;;;;;;;9.85;80.53;96080.56;5115622;28;1037;-58
2023/10/07 01:42:07;;;;;;;;;;;;;;;9.81;79.95;96084.50;5116014;28;1027;-58
2023/10/07 01:44:38;;;;;;;;;;;;;;;9.79;80.11;96078.44;5115799;28;1901;-57
2023/10/07 01:47:16;;;;;;;;;;;;;;;9.51;81.13;96078.16;5115712;28;970;-57
2023/10/07 01:49:43;;;;;;;;;;;;;;;9.64;81.06;96082.44;5115856;28;1059;-57
2023/10/07 01:52:09;;;;;;;;;;;;;;;9.70;80.81;96065.88;5115447;28;1147;-57
2023/10/07 01:54:35;;;;;;;;;;;;;;;9.73;81.19;96081.63;5115396;28;1648;-57
2023/10/07 01:57:04;;;;;;;;;;;;;;;9.72;81.56;96085.28;5115361;28;1099;-57
2023/10/07 01:59:31;;;;;;;;;;;;;;;9.74;81.37;96080.66;5115486;28;1133;-57
2023/10/07 02:01:58;;;;;;;;;;;;;;;9.47;81.90;96075.88;5115624;28;991;-57
2023/10/07 02:04:27;;;;;;;;;;;;;;;9.27;82.41;96077.56;5115380;28;1997;-57
2023/10/07 02:06:54;;;;;;;;;;;;;;;9.28;82.75;96077.44;5115523;28;999;-57
2023/10/07 02:09:25;;;;;;;;;;;;;;;9.41;81.78;96079.94;5115111;28;1035;-57
2023/10/07 02:11:55;;;;;;;;;;;;;;;9.16;82.78;96090.03;5115180;28;1040;-57
2023/10/07 02:14:23;;;;;;;;;;;;;;;9.26;82.79;96084.75;5114974;28;1100;-57
2023/10/07 02:16:53;;;;;;;;;;;;;;;9.10;83.11;96081.66;5115042;28;984;-57
2023/10/07 02:19:32;;;;;;;;;;;;;;;9.17;82.79;96070.34;5115190;28;964;-57
2023/10/07 02:21:59;;;;;;;;;;;;;;;8.97;83.36;96080.06;5115127;28;1012;-57
2023/10/07 02:24:32;;;;;;;;;;;;;;;8.81;83.79;96071.63;5114751;28;1906;-57
2023/10/07 02:27:18;;;;;;;;;;;;;;;8.77;84.43;96067.53;5114613;28;1166;-57
2023/10/07 02:29:48;;;;;;;;;;;;;;;8.94;83.34;96076.78;5114986;28;965;-57
2023/10/07 02:32:17;;;;;;;;;;;;;;;8.92;83.63;96082.25;5114935;28;972;-57
2023/10/07 02:34:53;;;;;;;;;;;;;;;8.98;83.70;96078.22;5114665;28;1101;-57
2023/10/07 02:37:25;;;;;;;;;;;;;;;8.84;83.98;96076.72;5114613;28;1036;-57
2023/10/07 02:40:19;;;;;;;;;;;;;;;9.23;82.91;96071.66;5096779;28;1009;-57
2023/10/07 02:42:46;;;;;;;;;;;;;;;9.33;82.25;96072.56;5114845;28;992;-57
2023/10/07 02:47:51;;;;;;;;;;;;;;;9.30;82.26;96066.66;5114527;28;1052;-57
2023/10/07 02:50:17;;;;;;;;;;;;;;;9.18;82.61;96073.84;5114592;28;1048;-57
2023/10/07 02:52:46;;;;;;;;;;;;;;;9.08;82.79;96073.78;5114549;28;996;-57
2023/10/07 02:57:45;;;;;;;;;;;;;;;8.79;83.02;96074.41;5114451;28;980;-58
2023/10/07 03:00:16;;;;;;;;;;;;;;;8.88;83.20;96071.94;5096888;28;1189;-57
2023/10/07 03:02:48;;;;;;;;;;;;;;;9.04;82.20;96075.03;5093840;28;984;-57
2023/10/07 03:05:20;;;;;;;;;;;;;;;8.95;81.67;96073.13;5093633;28;1906;-57
2023/10/07 03:08:01;;;;;;;;;;;;;;;8.59;82.95;96064.53;5093786;28;1099;-57
2023/10/07 03:10:32;;;;;;;;;;;;;;;8.64;83.25;96070.34;5094021;28;1032;-57
2023/10/07 03:12:59;;;;;;;;;;;;;;;8.65;83.15;96068.53;5093998;28;1057;-57
2023/10/07 03:18:00;;;;;;;;;;;;;;;8.46;83.79;96070.06;5093720;28;1044;-56
2023/10/07 03:20:31;;;;;;;;;;;;;;;8.27;84.96;96070.69;5093790;28;1079;-57
2023/10/07 03:28:17;;;;;;;;;;;;;;;8.29;84.65;96062.53;5112254;28;1111;-57
2023/10/07 03:30:51;;;;;;;;;;;;;;;8.32;84.53;96070.28;5113943;28;1025;-57
2023/10/07 03:33:32;;;;;;;;;;;;;;;8.26;84.24;96066.31;5113910;28;984;-57
2023/10/07 03:36:08;;;;;;;;;;;;;;;8.37;84.14;96076.09;5113898;28;1029;-57
2023/10/07 03:38:35;;;;;;;;;;;;;;;8.26;83.98;96073.47;5113704;28;1095;-57
2023/10/07 03:41:06;;;;;;;;;;;;;;;8.23;84.14;96073.69;5113655;28;1132;-56
2023/10/07 03:43:34;;;;;;;;;;;;;;;8.22;84.08;96078.19;5113985;28;1008;-57
2023/10/07 03:46:00;;;;;;;;;;;;;;;8.34;83.73;96076.34;5113686;28;1906;-57
2023/10/07 03:48:32;;;;;;;;;;;;;;;8.40;83.49;96075.84;5113660;28;1025;-57
2023/10/07 03:51:09;;;;;;;;;;;;;;;8.33;83.57;96080.84;5113624;28;1049;-58
2023/10/07 03:53:45;;;;;;;;;;;;;;;8.12;84.08;96078.09;5113856;28;1036;-56
2023/10/07 03:56:12;;;;;;;;;;;;;;;8.04;84.59;96079.66;5113646;28;1060;-57
2023/10/07 03:58:41;;;;;;;;;;;;;;;8.18;83.86;96079.41;5113453;28;1220;-57
2023/10/07 04:01:22;;;;;;;;;;;;;;;8.08;84.72;96081.09;5113514;28;1056;-57
2023/10/07 04:03:52;;;;;;;;;;;;;;;8.10;84.69;96074.72;5113714;28;1913;-57
2023/10/07 04:06:21;;;;;;;;;;;;;;;8.22;84.06;96072.88;5114264;28;968;-57
2023/10/07 04:08:56;;;;;;;;;;;;;;;8.11;84.22;96067.56;5117553;28;1083;-57
2023/10/07 04:11:26;;;;;;;;;;;;;;;7.93;85.13;96073.38;5117443;28;1107;-57
2023/10/07 04:13:56;;;;;;;;;;;;;;;7.85;85.93;96070.47;5117398;28;1193;-57
2023/10/07 04:16:25;;;;;;;;;;;;;;;7.72;86.21;96070.63;5117811;28;992;-57
2023/10/07 04:18:51;;;;;;;;;;;;;;;7.73;86.81;96066.97;5099158;28;1067;-58
2023/10/07 04:21:17;;;;;;;;;;;;;;;7.91;86.17;96075.34;5117349;28;973;-58
2023/10/07 04:23:46;;;;;;;;;;;;;;;8.23;84.02;96074.53;5117115;28;1913;-58
2023/10/07 04:26:19;;;;;;;;;;;;;;;8.13;84.62;96078.94;5116900;28;1234;-58
2023/10/07 04:28:48;;;;;;;;;;;;;;;8.14;84.59;96083.31;5117352;28;1050;-57
2023/10/07 04:31:17;;;;;;;;;;;;;;;8.10;84.68;96082.69;5098917;28;1139;-57
2023/10/07 04:33:53;;;;;;;;;;;;;;;8.16;84.48;96092.00;5117309;28;1019;-57
2023/10/07 04:36:33;;;;;;;;;;;;;;;8.16;84.03;96094.69;5116936;28;1048;-57
2023/10/07 04:39:08;;;;;;;;;;;;;;;8.09;85.14;96096.13;5116814;28;1049;-58
2023/10/07 04:41:36;;;;;;;;;;;;;;;7.96;84.44;96088.25;5117045;28;1055;-58
2023/10/07 04:44:20;;;;;;;;;;;;;;;7.76;85.13;96096.03;5116756;28;1996;-59
2023/10/07 04:46:56;;;;;;;;;;;;;;;7.76;84.89;96092.53;5116916;28;1011;-59
2023/10/07 04:49:26;;;;;;;;;;;;;;;7.75;84.84;96094.31;5116643;28;1040;-59
2023/10/07 04:51:58;;;;;;;;;;;;;;;7.75;84.85;96098.81;5116713;28;1190;-59
2023/10/07 04:54:24;;;;;;;;;;;;;;;7.70;85.67;96088.53;5116852;28;1051;-59
2023/10/07 04:57:00;;;;;;;;;;;;;;;7.85;85.86;96086.44;5116956;28;1000;-59
2023/10/07 04:59:27;;;;;;;;;;;;;;;8.10;85.33;96100.47;5087342;28;1154;-59
2023/10/07 05:02:01;;;;;;;;;;;;;;;8.11;85.61;96097.69;5096059;28;961;-58
2023/10/07 05:04:28;;;;;;;;;;;;;;;8.25;85.33;96101.06;5095891;28;1976;-59
2023/10/07 05:06:54;;;;;;;;;;;;;;;8.37;85.16;96100.94;5096205;28;1047;-59
2023/10/07 05:09:21;;;;;;;;;;;;;;;8.37;85.09;96108.09;5096146;28;957;-59
2023/10/07 05:11:48;;;;;;;;;;;;;;;8.52;84.28;96111.38;5095878;28;1041;-59
2023/10/07 05:14:22;;;;;;;;;;;;;;;8.60;84.79;96107.06;5095726;28;914;-59
2023/10/07 05:16:48;;;;;;;;;;;;;;;8.62;84.72;96106.13;5078021;28;997;-59
2023/10/07 05:19:19;;;;;;;;;;;;;;;8.73;84.21;96106.09;5095818;28;957;-59
2023/10/07 05:22:36;;;;;;;;;;;;;;;8.78;84.32;96115.41;5096090;28;1046;-59
2023/10/07 05:24:35;;;;;;;;;;;;;;;8.97;84.08;96109.38;5081728;28;1922;-59
2023/10/07 05:27:01;;;;;;;;;;;;;;;9.18;83.88;96114.75;5104269;28;1080;-59
2023/10/07 05:29:28;;;;;;;;;;;;;;;9.58;81.65;96116.69;5115846;28;1037;-58
2023/10/07 05:31:55;;;;;;;;;;;;;;;9.81;81.55;96121.03;5098192;28;956;-58
2023/10/07 05:34:22;;;;;;;;;;;;;;;9.96;81.07;96111.69;5115945;28;946;-58
2023/10/07 05:36:47;;;;;;;;;;;;;;;10.67;78.44;96117.00;5115809;28;1099;-58
2023/10/07 05:39:15;;;;;;;;;;;;;;;11.64;73.81;96112.63;5115761;28;1044;-58
2023/10/07 05:41:41;;;;;;;;;;;;;;;11.60;73.72;96125.47;5115691;28;978;-58
2023/10/07 05:44:09;;;;;;;;;;;;;;;11.88;73.49;96125.56;5115578;28;1909;-58
2023/10/07 05:46:35;;;;;;;;;;;;;;;13.45;66.91;96134.47;5115678;28;1108;-59
2023/10/07 05:49:02;;;;;;;;;;;;;;;15.31;59.26;96135.72;5115869;28;1024;-59
2023/10/07 05:51:28;;;;;;;;;;;;;;;17.23;53.04;96148.50;5115770;28;995;-59
2023/10/07 05:53:54;;;;;;;;;;;;;;;18.50;48.82;96151.53;5115581;28;1023;-59
2023/10/07 05:56:22;;;;;;;;;;;;;;;19.28;46.58;96155.47;5115307;28;1160;-58
2023/10/07 05:58:48;;;;;;;;;;;;;;;19.29;45.68;96157.16;5115530;28;1173;-59
2023/10/07 06:01:18;;;;;;;;;;;;;;;18.87;46.20;96153.28;5115249;28;1052;-58
2023/10/07 06:03:46;;;;;;;;;;;;;;;20.25;43.51;96159.56;5115566;28;1914;-58
2023/10/07 06:06:14;;;;;;;;;;;;;;;21.04;41.65;96173.88;5115304;28;979;-58
2023/10/07 06:08:40;;;;;;;;;;;;;;;21.46;40.42;96174.72;5115214;28;1047;-59
2023/10/07 06:11:10;;;;;;;;;;;;;;;21.48;40.05;96188.13;5115467;28;1281;-59
2023/10/07 06:13:37;;;;;;;;;;;;;;;21.47;40.54;96183.69;5115409;28;957;-58
2023/10/07 06:16:07;;;;;;;;;;;;;;;21.56;40.10;96177.88;5115135;28;980;-58
2023/10/07 06:18:33;;;;;;;;;;;;;;;20.67;41.44;96173.25;5115000;28;971;-59
2023/10/07 06:23:45;;;;;;;;;;;;;;;17.10;50.10;96144.53;5114829;28;1996;-59
2023/10/07 06:26:12;;;;;;;;;;;;;;;16.09;54.29;96132.56;5114850;28;1218;-57
2023/10/07 06:28:44;;;;;;;;;;;;;;;15.71;56.03;96131.38;5114504;28;1083;-57
2023/10/07 06:31:10;;;;;;;;;;;;;;;15.43;58.26;96123.63;5114675;28;1040;-57
2023/10/07 06:33:44;;;;;;;;;;;;;;;15.26;58.50;96127.31;5114737;28;1000;-57
2023/10/07 06:36:12;;;;;;;;;;;;;;;15.45;58.01;96137.78;5114546;28;1040;-57
2023/10/07 06:38:38;;;;;;;;;;;;;;;15.42;59.25;96143.47;5114887;28;1250;-57
2023/10/07 06:41:11;;;;;;;;;;;;;;;15.84;58.46;96133.59;5114499;28;1060;-57
2023/10/07 06:43:47;;;;;;;;;;;;;;;15.89;57.09;96137.44;5114596;28;1015;-58
2023/10/07 06:46:13;;;;;;;;;;;;;;;15.71;57.26;96148.41;5114718;28;1053;-57
2023/10/07 06:48:39;;;;;;;;;;;;;;;15.44;57.25;96146.84;5114373;28;1111;-57
2023/10/07 06:51:10;;;;;;;;;;;;;;;15.49;57.87;96141.81;5114424;28;925;-57
2023/10/07 06:53:40;;;;;;;;;;;;;;;15.49;59.44;96140.97;5096398;28;1032;-57
2023/10/07 06:56:06;;;;;;;;;;;;;;;15.80;58.62;96147.41;5114472;28;961;-57
2023/10/07 06:58:35;;;;;;;;;;;;;;;15.95;57.31;96149.41;5110630;28;1271;-57
2023/10/07 07:01:16;;;;;;;;;;;;;;;15.78;59.19;96145.88;5093680;28;1045;-57
2023/10/07 07:03:43;;;;;;;;;;;;;;;16.27;57.16;96142.28;5093996;28;1044;-56
2023/10/07 07:06:16;;;;;;;;;;;;;;;16.29;57.39;96146.50;5093630;28;1064;-57
2023/10/07 07:08:45;;;;;;;;;;;;;;;16.29;58.19;96142.97;5093967;28;962;-57
2023/10/07 07:11:12;;;;;;;;;;;;;;;16.54;57.31;96144.59;5093765;28;1047;-57
2023/10/07 07:13:43;;;;;;;;;;;;;;;16.69;57.04;96138.44;5093479;28;969;-57
2023/10/07 07:16:13;;;;;;;;;;;;;;;16.89;56.70;96149.69;5096415;28;2510;-57
2023/10/07 07:18:40;;;;;;;;;;;;;;;17.21;55.42;96154.09;5093673;28;1217;-57
2023/10/07 07:21:49;;;;;;;;;;;;;;;17.32;55.51;96142.88;5093611;28;957;-57
2023/10/07 07:23:56;;;;;;;;;;;;;;;17.32;56.25;96150.13;5084246;28;2868;-57
2023/10/07 07:26:22;;;;;;;;;;;;;;;17.36;55.45;96151.47;5098692;27;2903;-58
2023/10/07 07:28:48;;;;;;;;;;;;;;;17.58;55.90;96147.06;5134312;28;953;-57
2023/10/07 07:31:18;;;;;;;;;;;;;;;17.81;54.71;96141.66;5134404;28;961;-57
2023/10/07 07:33:48;;;;;;;;;;;;;;;18.00;54.16;96129.50;5132980;28;2451;-57
2023/10/07 07:36:39;;;;;;;;;;;;;;;18.33;52.67;96140.03;5134420;28;973;-57
2023/10/07 07:39:09;;;;;;;;;;;;;;;18.27;53.22;96138.91;5126163;28;2483;-57
2023/10/07 07:41:38;;;;;;;;;;;;;;;18.26;53.45;96133.66;5116748;28;1122;-57
2023/10/07 07:44:11;;;;;;;;;;;;;;;18.66;52.60;96129.66;5117923;28;1988;-57
2023/10/07 07:46:53;;;;;;;;;;;;;;;18.77;52.70;96122.91;5118246;28;1006;-57
2023/10/07 07:49:19;;;;;;;;;;;;;;;19.02;51.85;96120.75;5117693;28;1827;-57
2023/10/07 07:51:51;;;;;;;;;;;;;;;18.79;52.38;96120.84;5117982;28;991;-57
2023/10/07 07:54:18;;;;;;;;;;;;;;;18.96;51.36;96115.28;5117795;28;1053;-57
2023/10/07 07:56:45;;;;;;;;;;;;;;;19.03;51.29;96108.91;5117804;28;1075;-57
2023/10/07 07:59:14;;;;;;;;;;;;;;;19.17;51.07;96111.75;5126482;27;1150;-57
2023/10/07 08:02:12;;;;;;;;;;;;;;;19.37;50.26;96109.25;5138243;27;999;-56
2023/10/07 08:04:42;;;;;;;;;;;;;;;19.65;49.56;96118.31;5137039;27;1914;-55
2023/10/07 08:09:55;;;;;;;;;;;;;;;19.55;50.00;96106.94;5137964;27;1033;-57
2023/10/07 08:12:28;;;;;;;;;;;;;;;19.65;49.25;96103.88;5137838;27;1099;-57
2023/10/07 08:14:58;;;;;;;;;;;;;;;19.65;49.44;96121.03;5138184;27;1029;-57
2023/10/07 08:17:27;;;;;;;;;;;;;;;19.83;49.90;96104.31;5137668;27;1028;-57
2023/10/07 08:19:53;;;;;;;;;;;;;;;20.06;48.80;96104.06;5137744;27;1100;-57
2023/10/07 08:22:20;;;;;;;;;;;;;;;20.17;48.00;96105.41;5137624;27;1099;-57
2023/10/07 08:24:47;;;;;;;;;;;;;;;20.21;48.26;96103.13;5137508;27;2000;-57
2023/10/07 08:30:09;;;;;;;;;;;;;;;20.37;48.48;96089.22;5137550;27;1032;-57
2023/10/07 08:32:37;;;;;;;;;;;;;;;20.33;48.26;96084.41;5137510;27;1016;-57
2023/10/07 08:35:14;;;;;;;;;;;;;;;20.24;48.79;96089.16;5137390;27;1088;-57
2023/10/07 08:37:46;;;;;;;;;;;;;;;20.52;46.56;96080.13;5137749;27;969;-56
2023/10/07 08:40:25;;;;;;;;;;;;;;;20.71;47.27;96087.56;5137315;27;1088;-57
2023/10/07 08:42:53;;;;;;;;;;;;;;;20.67;47.05;96089.84;5137428;27;1035;-57
2023/10/07 08:45:23;;;;;;;;;;;;;;;20.72;47.11;96081.09;5137248;27;1989;-57
2023/10/07 08:47:50;;;;;;;;;;;;;;;21.00;46.67;96078.28;5137464;27;1011;-57
2023/10/07 08:50:23;;;;;;;;;;;;;;;20.93;46.62;96082.88;5137119;27;1032;-57
2023/10/07 08:53:05;;;;;;;;;;;;;;;21.09;47.28;96080.81;5136624;27;1035;-56
2023/10/07 08:55:32;;;;;;;;;;;;;;;21.22;45.31;96076.25;5137168;27;1044;-56
2023/10/07 08:58:02;;;;;;;;;;;;;;;21.33;45.75;96074.00;5137161;27;1059;-56
2023/10/07 09:00:32;;;;;;;;;;;;;;;21.45;44.59;96075.06;5136808;27;1161;-57
2023/10/07 09:03:14;;;;;;;;;;;;;;;21.56;45.44;96066.31;5137016;27;1028;-57
2023/10/07 09:05:40;;;;;;;;;;;;;;;21.59;45.15;96062.34;5136823;27;1976;-56
2023/10/07 09:08:11;;;;;;;;;;;;;;;21.76;44.03;96065.47;5136967;27;948;-56
2023/10/07 09:10:38;;;;;;;;;;;;;;;21.77;44.45;96059.00;5136826;27;1031;-57
2023/10/07 09:13:05;;;;;;;;;;;;;;;21.52;44.42;96061.50;5136783;27;1040;-57
2023/10/07 09:15:35;;;;;;;;;;;;;;;21.77;45.16;96048.09;5136935;27;1031;-56
2023/10/07 09:18:03;;;;;;;;;;;;;;;21.94;44.08;96054.78;5136981;27;972;-56
2023/10/07 09:20:36;;;;;;;;;;;;;;;22.10;44.38;96049.97;5136657;27;1040;-57
2023/10/07 09:23:24;;;;;;;;;;;;;;;22.12;43.72;96047.84;5136529;27;1048;-57
2023/10/07 09:25:52;;;;;;;;;;;;;;;22.02;43.83;96046.44;5136310;27;1986;-56
2023/10/07 09:28:29;;;;;;;;;;;;;;;22.25;42.96;96039.69;5116615;27;1238;-57
2023/10/07 09:30:58;;;;;;;;;;;;;;;22.36;43.28;96038.22;5115803;28;1310;-57
2023/10/07 09:33:34;;;;;;;;;;;;;;;22.12;42.56;96036.97;5115695;28;1027;-57
2023/10/07 09:39:13;;;;;;;;;;;;;;;22.29;43.23;96021.91;5070630;28;1265;-57
2023/10/07 09:41:39;;;;;;;;;;;;;;;22.53;43.03;96028.50;5115749;28;1037;-57
2023/10/07 09:44:27;;;;;;;;;;;;;;;22.32;43.18;96020.63;5115412;28;1913;-57
2023/10/07 09:46:52;;;;;;;;;;;;;;;22.29;43.50;96019.19;5115323;28;1454;-57
2023/10/07 09:49:20;;;;;;;;;;;;;;;22.06;42.27;96019.59;5115427;28;1079;-57
2023/10/07 09:51:50;;;;;;;;;;;;;;;22.13;44.30;96009.53;5115417;28;1116;-57
2023/10/07 09:54:22;;;;;;;;;;;;;;;22.38;42.88;96015.16;5115242;28;1045;-56
2023/10/07 09:56:58;;;;;;;;;;;;;;;22.64;42.55;96012.56;5115270;28;1015;-57
2023/10/07 09:59:32;;;;;;;;;;;;;;;22.54;43.18;95999.41;5104682;28;1178;-57
2023/10/07 10:02:23;;;;;;;;;;;;;;;22.64;41.93;96007.13;5095038;28;1046;-57
2023/10/07 10:05:00;;;;;;;;;;;;;;;22.67;42.93;95996.63;5075842;28;1989;-57
2023/10/07 10:07:28;;;;;;;;;;;;;;;22.76;42.55;95995.28;5094737;28;1123;-57
2023/10/07 10:10:05;;;;;;;;;;;;;;;23.09;41.66;95993.50;5094698;28;1016;-56
2023/10/07 10:18:05;;;;;;;;;;;;;;;22.73;43.31;95979.38;5094733;28;969;-57
2023/10/07 10:20:44;;;;;;;;;;;;;;;22.96;42.70;95967.09;5094757;28;1008;-57
2023/10/07 10:23:19;;;;;;;;;;;;;;;22.92;42.72;95960.41;5094672;28;949;-57
2023/10/07 10:25:55;;;;;;;;;;;;;;;22.99;42.62;95950.28;5094707;28;1918;-57
2023/10/07 10:28:28;;;;;;;;;;;;;;;23.28;42.55;95953.50;5114058;28;1231;-57
2023/10/07 10:30:55;;;;;;;;;;;;;;;23.15;42.15;95943.50;5114637;28;1123;-57
2023/10/07 10:33:23;;;;;;;;;;;;;;;22.98;41.00;95949.44;5114642;28;1016;-57
2023/10/07 10:35:57;;;;;;;;;;;;;;;23.04;42.40;95942.31;5114551;28;1208;-56
2023/10/07 10:38:40;;;;;;;;;;;;;;;23.25;42.18;95937.56;5114446;28;1092;-57
2023/10/07 10:41:08;;;;;;;;;;;;;;;22.95;41.05;95927.25;5114715;28;1022;-57
2023/10/07 10:43:34;;;;;;;;;;;;;;;23.18;41.67;95922.09;5114527;28;1000;-57
2023/10/07 10:46:02;;;;;;;;;;;;;;;23.41;41.28;95917.06;5114584;28;1992;-57
2023/10/07 10:48:30;;;;;;;;;;;;;;;23.47;41.75;95918.91;5114308;28;1048;-57
2023/10/07 10:50:56;;;;;;;;;;;;;;;23.51;41.12;95914.69;5114208;28;1029;-56
2023/10/07 10:53:22;;;;;;;;;;;;;;;23.39;41.41;95904.50;5114464;28;968;-57
2023/10/07 10:55:48;;;;;;;;;;;;;;;23.34;41.70;95898.03;5114203;28;1100;-57
2023/10/07 10:58:18;;;;;;;;;;;;;;;23.50;41.11;95896.63;5114328;28;1285;-57
2023/10/07 11:00:51;;;;;;;;;;;;;;;23.63;40.29;95890.22;5114433;28;960;-57
2023/10/07 11:03:20;;;;;;;;;;;;;;;23.50;41.41;95889.25;5114314;28;956;-57
2023/10/07 11:05:48;;;;;;;;;;;;;;;23.19;41.26;95882.81;5114175;28;1998;-57
2023/10/07 11:08:22;;;;;;;;;;;;;;;23.38;41.79;95872.78;5113927;28;1029;-57
2023/10/07 11:10:52;;;;;;;;;;;;;;;23.56;41.84;95866.56;5114232;28;1023;-56
2023/10/07 11:13:19;;;;;;;;;;;;;;;23.61;40.78;95857.66;5113828;28;1084;-57
2023/10/07 11:16:11;;;;;;;;;;;;;;;23.50;40.53;95861.97;5113890;28;1047;-57
2023/10/07 11:18:38;;;;;;;;;;;;;;;23.60;40.74;95858.75;5113894;28;1016;-57
2023/10/07 11:21:15;;;;;;;;;;;;;;;23.51;40.88;95844.53;5113824;28;1119;-57
2023/10/07 11:24:01;;;;;;;;;;;;;;;23.59;39.99;95843.41;5114071;28;1048;-57
2023/10/07 11:26:32;;;;;;;;;;;;;;;23.73;40.25;95839.50;5113719;28;1295;-56
2023/10/07 11:29:10;;;;;;;;;;;;;;;23.57;40.43;95838.19;5113816;28;1155;-57
2023/10/07 11:31:37;;;;;;;;;;;;;;;23.43;40.24;95833.94;5113750;28;1111;-56
2023/10/07 11:34:05;;;;;;;;;;;;;;;23.56;40.43;95831.06;5113836;28;1028;-56
2023/10/07 11:36:43;;;;;;;;;;;;;;;23.79;40.15;95829.59;5113630;28;1043;-56
2023/10/07 11:39:09;;;;;;;;;;;;;;;23.92;39.20;95823.97;5113541;28;1025;-57
2023/10/07 11:41:36;;;;;;;;;;;;;;;23.93;38.53;95822.91;5113625;28;1111;-56
2023/10/07 11:44:03;;;;;;;;;;;;;;;23.67;37.44;95823.19;5113809;28;1910;-56
2023/10/07 11:46:29;;;;;;;;;;;;;;;23.61;38.02;95818.63;5113801;28;1030;-57
2023/10/07 11:48:56;;;;;;;;;;;;;;;23.87;37.58;95810.16;5113825;28;984;-57
2023/10/07 11:51:27;;;;;;;;;;;;;;;24.08;38.35;95817.03;5113534;28;1036;-56
2023/10/07 11:53:55;;;;;;;;;;;;;;;24.10;38.27;95803.97;5113410;28;1079;-57
2023/10/07 11:56:21;;;;;;;;;;;;;;;23.95;37.83;95801.66;5113684;28;1031;-57
2023/10/07 11:58:49;;;;;;;;;;;;;;;23.99;37.89;95807.50;5107804;28;1165;-57
2023/10/07 12:01:20;;;;;;;;;;;;;;;24.03;38.60;95791.47;5093284;28;948;-57
2023/10/07 12:03:46;;;;;;;;;;;;;;;24.04;38.01;95795.91;5093188;28;1036;-57
2023/10/07 12:06:12;;;;;;;;;;;;;;;23.87;38.59;95785.59;5092811;28;1890;-57
2023/10/07 12:08:38;;;;;;;;;;;;;;;23.84;38.75;95788.75;5093384;28;1040;-56
2023/10/07 12:11:05;;;;;;;;;;;;;;;23.75;38.17;95788.22;5093298;28;986;-57
2023/10/07 12:13:31;;;;;;;;;;;;;;;23.72;38.42;95780.47;5092917;28;1092;-57
2023/10/07 12:16:00;;;;;;;;;;;;;;;23.84;37.43;95785.22;5092912;28;1037;-57
2023/10/07 12:18:26;;;;;;;;;;;;;;;24.02;38.08;95787.06;5093145;28;1075;-57
2023/10/07 12:21:00;;;;;;;;;;;;;;;24.16;38.60;95783.09;5092885;28;1012;-57
2023/10/07 12:23:27;;;;;;;;;;;;;;;24.22;36.72;95790.38;5092830;28;1107;-57
2023/10/07 12:25:53;;;;;;;;;;;;;;;24.20;37.21;95780.75;5093073;28;1992;-56
2023/10/07 12:28:19;;;;;;;;;;;;;;;24.26;35.60;95774.34;5114370;28;1088;-56
2023/10/07 12:30:49;;;;;;;;;;;;;;;24.23;36.17;95772.94;5116983;28;1033;-57
2023/10/07 12:33:15;;;;;;;;;;;;;;;24.19;37.19;95766.25;5117149;28;949;-57
2023/10/07 12:35:41;;;;;;;;;;;;;;;24.21;36.23;95766.00;5117117;28;950;-57
2023/10/07 12:38:09;;;;;;;;;;;;;;;24.20;36.76;95748.78;5116876;28;1123;-57
2023/10/07 12:40:38;;;;;;;;;;;;;;;24.35;36.79;95759.28;5116984;28;1058;-57
2023/10/07 12:43:06;;;;;;;;;;;;;;;24.42;36.55;95765.50;5116865;28;1035;-56
2023/10/07 12:45:32;;;;;;;;;;;;;;;24.47;35.07;95760.19;5116872;28;1910;-57
2023/10/07 12:47:59;;;;;;;;;;;;;;;24.26;36.31;95753.31;5116596;28;1099;-57
2023/10/07 12:50:32;;;;;;;;;;;;;;;24.14;37.04;95749.72;5116768;28;1029;-57
2023/10/07 12:52:59;;;;;;;;;;;;;;;24.05;35.95;95745.66;5116930;28;1011;-57
2023/10/07 12:55:31;;;;;;;;;;;;;;;24.01;35.49;95748.00;5116382;28;1033;-57
2023/10/07 12:57:57;;;;;;;;;;;;;;;24.17;35.59;95743.81;5116754;28;995;-56
2023/10/07 13:00:23;;;;;;;;;;;;;;;24.34;36.62;95733.88;5116298;28;1173;-56
2023/10/07 13:02:49;;;;;;;;;;;;;;;24.40;35.78;95739.44;5116613;28;992;-57
2023/10/07 13:05:19;;;;;;;;;;;;;;;24.47;35.35;95738.31;5116381;28;1990;-56
2023/10/07 13:08:18;;;;;;;;;;;;;;;24.53;35.36;95731.09;5116513;28;2335;-57
2023/10/07 13:10:45;;;;;;;;;;;;;;;24.55;34.36;95732.53;5116597;28;985;-56
2023/10/07 13:13:29;;;;;;;;;;;;;;;24.50;34.56;95731.53;5116126;28;1064;-57
2023/10/07 13:15:56;;;;;;;;;;;;;;;24.34;34.31;95722.13;5116359;28;1021;-57
2023/10/07 13:18:24;;;;;;;;;;;;;;;24.16;34.66;95723.00;5116302;28;1025;-57
2023/10/07 13:20:50;;;;;;;;;;;;;;;24.10;34.51;95723.94;5116584;28;965;-57
2023/10/07 13:23:16;;;;;;;;;;;;;;;24.21;35.64;95716.81;5115905;28;1024;-56
2023/10/07 13:25:45;;;;;;;;;;;;;;;24.20;34.63;95726.09;5115784;28;1902;-57
2023/10/07 13:28:11;;;;;;;;;;;;;;;24.24;34.90;95719.94;5097591;28;1243;-57
2023/10/07 13:30:38;;;;;;;;;;;;;;;24.22;35.21;95719.34;5116205;28;1021;-57
2023/10/07 13:33:05;;;;;;;;;;;;;;;24.28;35.81;95712.97;5116075;28;1029;-57
2023/10/07 13:35:32;;;;;;;;;;;;;;;24.37;35.26;95707.97;5115667;28;1080;-57
2023/10/07 13:37:58;;;;;;;;;;;;;;;24.31;34.88;95712.47;5115483;28;1083;-56
2023/10/07 13:40:24;;;;;;;;;;;;;;;24.26;34.90;95706.88;5115522;28;1023;-57
2023/10/07 13:42:52;;;;;;;;;;;;;;;24.27;34.98;95707.72;5115927;28;1139;-57
2023/10/07 13:45:21;;;;;;;;;;;;;;;24.34;34.72;95706.56;5115683;28;1910;-57
2023/10/07 13:47:48;;;;;;;;;;;;;;;24.32;35.55;95711.41;5115465;28;1048;-57
2023/10/07 13:50:15;;;;;;;;;;;;;;;24.17;34.70;95711.03;5115464;28;1054;-57
2023/10/07 13:52:51;;;;;;;;;;;;;;;24.15;35.11;95696.78;5115399;28;1100;-57